| time (UTC) | temp C | wind direction | speed KPH | gust KPH | rain 1hr cm | rain 24hr cm | rain mn cm | humidity % | barometer mb |
| 20260510180104 | 30 | 340 | 35.4 | 48.3 | 0.00 | 0.00 | 0.00 | 31 | 1014.5 |
| 20260510174558 | 29 | 351 | 35.4 | 54.7 | 0.00 | 0.00 | 0.00 | 32 | 1014.6 |
| 20260510173048 | 28 | 337 | 37.0 | 53.1 | 0.00 | 0.00 | 0.00 | 31 | 1014.3 |
| 20260510171552 | 28 | 321 | 40.2 | 53.1 | 0.00 | 0.00 | 0.00 | 32 | 1014.2 |
| 20260510170051 | 28 | 338 | 45.1 | 59.5 | 0.00 | 0.00 | 0.00 | 30 | 1014.2 |
| 20260510164550 | 29 | 339 | 40.2 | 54.7 | 0.00 | 0.00 | 0.00 | 29 | 1013.9 |
| 20260510163055 | 30 | 340 | 38.6 | 53.1 | 0.00 | 0.00 | 0.00 | 29 | 1013.5 |
| 20260510161550 | 31 | 335 | 40.2 | 56.3 | 0.00 | 0.00 | 0.00 | 18 | 1013.0 |
| 20260510160100 | 31 | 352 | 35.4 | 46.7 | 0.00 | 0.00 | 0.00 | 14 | 1012.6 |
| 20260510154555 | 27 | 42 | 22.5 | 40.2 | 0.00 | 0.00 | 0.00 | 25 | 1012.5 |
| 20260510153051 | 28 | 55 | 22.5 | 30.6 | 0.00 | 0.00 | 0.00 | 23 | 1012.3 |
| 20260510151549 | 27 | 60 | 12.9 | 25.7 | 0.00 | 0.00 | 0.00 | 28 | 1011.9 |
| 20260510150053 | 33 | 242 | 20.9 | 30.6 | 0.00 | 0.00 | 0.00 | 12 | 1011.0 |
| 20260510144548 | 32 | 254 | 22.5 | 30.6 | 0.00 | 0.00 | 0.00 | 12 | 1010.8 |
| 20260510143052 | 32 | 244 | 20.9 | 33.8 | 0.00 | 0.00 | 0.00 | 12 | 1010.6 |
| 20260510141552 | 31 | 245 | 22.5 | 30.6 | 0.00 | 0.00 | 0.00 | 13 | 1010.4 |
| 20260510140053 | 30 | 258 | 20.9 | 30.6 | 0.00 | 0.00 | 0.00 | 15 | 1010.6 |
| 20260510134548 | 28 | 245 | 16.1 | 22.5 | 0.00 | 0.00 | 0.00 | 20 | 1010.6 |
| 20260510133050 | 27 | 256 | 14.5 | 20.9 | 0.00 | 0.00 | 0.00 | 23 | 1010.6 |
| 20260510131549 | 26 | 267 | 11.3 | 16.1 | 0.00 | 0.00 | 0.00 | 24 | 1010.3 |
| 20260510130049 | 25 | 257 | 11.3 | 17.7 | 0.00 | 0.00 | 0.00 | 25 | 1010.0 |
| 20260510124553 | 24 | 254 | 12.9 | 17.7 | 0.00 | 0.00 | 0.00 | 26 | 1009.8 |
| 20260510123048 | 23 | 238 | 14.5 | 19.3 | 0.00 | 0.00 | 0.00 | 26 | 1009.9 |
| 20260510121546 | 23 | 267 | 6.4 | 14.5 | 0.00 | 0.00 | 0.00 | 26 | 1009.9 |
| 20260510120046 | 23 | 252 | 11.3 | 16.1 | 0.00 | 0.00 | 0.00 | 25 | 1009.7 |
| 20260510114556 | 23 | 253 | 8.0 | 14.5 | 0.00 | 0.00 | 0.00 | 25 | 1009.5 |
| 20260510113049 | 23 | 244 | 9.7 | 16.1 | 0.00 | 0.00 | 0.00 | 24 | 1009.2 |
| 20260510111547 | 23 | 246 | 11.3 | 17.7 | 0.00 | 0.00 | 0.00 | 24 | 1009.1 |
| 20260510110052 | 24 | 232 | 14.5 | 19.3 | 0.00 | 0.00 | 0.00 | 23 | 1009.0 |
| 20260510104553 | 24 | 221 | 14.5 | 20.9 | 0.00 | 0.00 | 0.00 | 22 | 1009.0 |
| 20260510103053 | 23 | 231 | 9.7 | 17.7 | 0.00 | 0.00 | 0.00 | 22 | 1008.9 |
| 20260510101551 | 23 | 227 | 12.9 | 19.3 | 0.00 | 0.00 | 0.00 | 22 | 1008.8 |
| 20260510100110 | 22 | 243 | 11.3 | 17.7 | 0.00 | 0.00 | 0.00 | 23 | 1008.8 |
| 20260510094556 | 22 | 244 | 6.4 | 14.5 | 0.00 | 0.00 | 0.00 | 25 | 1008.8 |
| 20260510093100 | 22 | 245 | 9.7 | 14.5 | 0.00 | 0.00 | 0.00 | 25 | 1008.7 |
| 20260510091549 | 21 | 250 | 3.2 | 8.0 | 0.00 | 0.00 | 0.00 | 27 | 1008.6 |
| 20260510090053 | 22 | 155 | 0.0 | 4.8 | 0.00 | 0.00 | 0.00 | 28 | 1008.7 |
| 20260510084552 | 22 | 175 | 3.2 | 8.0 | 0.00 | 0.00 | 0.00 | 27 | 1008.7 |
| 20260510083101 | 22 | 150 | 1.6 | 8.0 | 0.00 | 0.00 | 0.00 | 27 | 1008.8 |
| 20260510081550 | 22 | 163 | 1.6 | 6.4 | 0.00 | 0.00 | 0.00 | 28 | 1009.0 |
| 20260510080052 | 22 | 148 | 1.6 | 6.4 | 0.00 | 0.00 | 0.00 | 27 | 1009.1 |
| 20260510074551 | 22 | 217 | 0.0 | 6.4 | 0.00 | 0.00 | 0.00 | 29 | 1009.2 |
| 20260510073051 | 21 | 182 | 0.0 | 1.6 | 0.00 | 0.00 | 0.00 | 31 | 1009.4 |
| 20260510071556 | 22 | 163 | 0.0 | 4.8 | 0.00 | 0.00 | 0.00 | 29 | 1009.4 |
| 20260510070053 | 21 | 0 | 0.0 | 1.6 | 0.00 | 0.00 | 0.00 | 32 | 1009.5 |
| 20260510064550 | 22 | 0 | 0.0 | 1.6 | 0.00 | 0.00 | 0.00 | 29 | 1009.6 |
| 20260510063051 | 23 | 147 | 0.0 | 1.6 | 0.00 | 0.00 | 0.00 | 27 | 1009.8 |
| 20260510061553 | 23 | 153 | 1.6 | 6.4 | 0.00 | 0.00 | 0.00 | 25 | 1009.9 |
| 20260510060051 | 23 | 144 | 3.2 | 9.7 | 0.00 | 0.00 | 0.00 | 25 | 1009.9 |
| 20260510054551 | 25 | 172 | 4.8 | 14.5 | 0.00 | 0.00 | 0.00 | 24 | 1009.9 |
| 20260510053052 | 25 | 176 | 8.0 | 14.5 | 0.00 | 0.00 | 0.00 | 24 | 1009.8 |
| 20260510051548 | 25 | 180 | 6.4 | 14.5 | 0.00 | 0.00 | 0.00 | 24 | 1009.8 |
| 20260510050049 | 25 | 155 | 3.2 | 11.3 | 0.00 | 0.00 | 0.00 | 23 | 1009.6 |
| 20260510044550 | 25 | 189 | 6.4 | 14.5 | 0.00 | 0.00 | 0.00 | 22 | 1010.0 |
| 20260510043054 | 25 | 181 | 8.0 | 19.3 | 0.00 | 0.00 | 0.00 | 21 | 1010.0 |
| 20260510041551 | 25 | 169 | 9.7 | 20.9 | 0.00 | 0.00 | 0.00 | 21 | 1009.8 |
| 20260510040058 | 25 | 163 | 6.4 | 12.9 | 0.00 | 0.00 | 0.00 | 21 | 1009.8 |
| 20260510034604 | 23 | 164 | 0.0 | 6.4 | 0.00 | 0.00 | 0.00 | 24 | 1009.7 |
| 20260510033112 | 23 | 149 | 0.0 | 6.4 | 0.00 | 0.00 | 0.00 | 22 | 1009.6 |
| 20260510031552 | 23 | 157 | 1.6 | 6.4 | 0.00 | 0.00 | 0.00 | 23 | 1009.4 |
| 20260510030051 | 25 | 160 | 0.0 | 6.4 | 0.00 | 0.00 | 0.00 | 19 | 1009.2 |
| 20260510024556 | 25 | 190 | 1.6 | 8.0 | 0.00 | 0.00 | 0.00 | 19 | 1008.9 |
| 20260510023046 | 26 | 166 | 1.6 | 4.8 | 0.00 | 0.00 | 0.00 | 17 | 1009.0 |
| 20260510021547 | 27 | 149 | 4.8 | 8.0 | 0.00 | 0.00 | 0.00 | 14 | 1008.8 |
| 20260510020050 | 27 | 135 | 0.0 | 4.8 | 0.00 | 0.00 | 0.00 | 16 | 1008.5 |
| 20260510014552 | 29 | 142 | 0.0 | 3.2 | 0.00 | 0.00 | 0.00 | 14 | 1008.2 |
| 20260510013054 | 31 | 119 | 1.6 | 8.0 | 0.00 | 0.00 | 0.00 | 15 | 1008.0 |
| 20260510011554 | 32 | 126 | 3.2 | 12.9 | 0.00 | 0.00 | 0.00 | 12 | 1007.9 |
| 20260510010050 | 33 | 107 | 9.7 | 19.3 | 0.00 | 0.00 | 0.00 | 12 | 1007.8 |
| 20260510004551 | 33 | 130 | 1.6 | 19.3 | 0.00 | 0.00 | 0.00 | 14 | 1007.8 |
| 20260510003109 | 34 | 145 | 9.7 | 16.1 | 0.00 | 0.00 | 0.00 | 9 | 1007.7 |
| 20260510001551 | 34 | 134 | 8.0 | 14.5 | 0.00 | 0.00 | 0.00 | 9 | 1007.7 |
| 20260510000057 | 35 | 146 | 1.6 | 9.7 | 0.00 | 0.00 | 0.00 | 9 | 1007.9 |
| 20260509234602 | 33 | 0 | 0.0 | 9.7 | 0.00 | 0.00 | 0.00 | 11 | 1007.9 |
| 20260509233048 | 35 | 153 | 3.2 | 16.1 | 0.00 | 0.00 | 0.00 | 9 | 1008.0 |
| 20260509231553 | 33 | 151 | 3.2 | 9.7 | 0.00 | 0.00 | 0.00 | 12 | 1007.8 |
| 20260509230057 | 34 | 0 | 0.0 | 3.2 | 0.00 | 0.00 | 0.00 | 13 | 1008.1 |
| 20260509224546 | 36 | 0 | 0.0 | 4.8 | 0.00 | 0.00 | 0.00 | 9 | 1008.3 |
| 20260509223052 | 35 | 0 | 1.6 | 9.7 | 0.00 | 0.00 | 0.00 | 8 | 1008.4 |
| 20260509221552 | 35 | 0 | 0.0 | 9.7 | 0.00 | 0.00 | 0.00 | 8 | 1008.6 |
| 20260509220050 | 35 | 128 | 1.6 | 12.9 | 0.00 | 0.00 | 0.00 | 11 | 1008.8 |
| 20260509214553 | 35 | 0 | 1.6 | 8.0 | 0.00 | 0.00 | 0.00 | 9 | 1009.0 |
| 20260509213058 | 35 | 0 | 3.2 | 8.0 | 0.00 | 0.00 | 0.00 | 9 | 1009.2 |
| 20260509211601 | 35 | 257 | 6.4 | 14.5 | 0.00 | 0.00 | 0.00 | 10 | 1009.5 |
| 20260509210054 | 35 | 223 | 3.2 | 17.7 | 0.00 | 0.00 | 0.00 | 9 | 1009.7 |
| 20260509204550 | 35 | 160 | 8.0 | 20.9 | 0.00 | 0.00 | 0.00 | 10 | 1010.0 |
| 20260509203047 | 35 | 151 | 3.2 | 14.5 | 0.00 | 0.00 | 0.00 | 11 | 1010.2 |
| 20260509201551 | 33 | 0 | 3.2 | 11.3 | 0.00 | 0.00 | 0.00 | 17 | 1010.6 |
| 20260509194558 | 33 | 0 | 4.8 | 14.5 | 0.00 | 0.00 | 0.00 | 17 | 1011.0 |
| 20260509193055 | 34 | 100 | 1.6 | 12.9 | 0.00 | 0.00 | 0.00 | 14 | 1011.1 |
| 20260509191550 | 33 | 313 | 1.6 | 11.3 | 0.00 | 0.00 | 0.00 | 12 | 1011.3 |
| 20260509190053 | 33 | 223 | 3.2 | 12.9 | 0.00 | 0.00 | 0.00 | 12 | 1011.5 |
| 20260509184551 | 33 | 143 | 8.0 | 14.5 | 0.00 | 0.00 | 0.00 | 11 | 1011.5 |
| 20260509183135 | 33 | 76 | 4.8 | 14.5 | 0.00 | 0.00 | 0.00 | 17 | 1011.8 |
| 20260509181606 | 32 | 178 | 1.6 | 12.9 | 0.00 | 0.00 | 0.00 | 14 | 1012.0 |